sensor_id;sensor_type;location;lat;lon;timestamp;P1;durP1;ratioP1;P2;durP2;ratioP2
13051;SDS011;6592;47.484;9.726;2023-08-31T00:00:31;4.40;;;1.58;;
13051;SDS011;6592;47.484;9.726;2023-08-31T00:03:00;2.90;;;1.42;;
13051;SDS011;6592;47.484;9.726;2023-08-31T00:05:28;3.95;;;1.70;;
13051;SDS011;6592;47.484;9.726;2023-08-31T00:07:57;3.65;;;1.52;;
13051;SDS011;6592;47.484;9.726;2023-08-31T00:10:25;2.60;;;1.50;;
13051;SDS011;6592;47.484;9.726;2023-08-31T00:12:53;5.07;;;1.70;;
13051;SDS011;6592;47.484;9.726;2023-08-31T00:15:22;2.47;;;1.48;;
13051;SDS011;6592;47.484;9.726;2023-08-31T00:17:52;3.10;;;1.70;;
13051;SDS011;6592;47.484;9.726;2023-08-31T00:20:20;4.85;;;1.70;;
13051;SDS011;6592;47.484;9.726;2023-08-31T00:22:49;3.42;;;1.48;;
13051;SDS011;6592;47.484;9.726;2023-08-31T00:25:17;2.92;;;1.52;;
13051;SDS011;6592;47.484;9.726;2023-08-31T00:27:46;3.42;;;1.40;;
13051;SDS011;6592;47.484;9.726;2023-08-31T00:30:15;2.75;;;1.55;;
13051;SDS011;6592;47.484;9.726;2023-08-31T00:32:43;2.45;;;1.60;;
13051;SDS011;6592;47.484;9.726;2023-08-31T00:35:15;2.67;;;1.50;;
13051;SDS011;6592;47.484;9.726;2023-08-31T00:37:43;3.83;;;1.60;;
13051;SDS011;6592;47.484;9.726;2023-08-31T00:40:12;3.42;;;1.63;;
13051;SDS011;6592;47.484;9.726;2023-08-31T00:42:40;3.03;;;1.60;;
13051;SDS011;6592;47.484;9.726;2023-08-31T00:45:09;4.93;;;1.70;;
13051;SDS011;6592;47.484;9.726;2023-08-31T00:47:37;2.83;;;1.50;;
13051;SDS011;6592;47.484;9.726;2023-08-31T00:50:05;2.95;;;1.52;;
13051;SDS011;6592;47.484;9.726;2023-08-31T00:52:36;2.45;;;1.40;;
13051;SDS011;6592;47.484;9.726;2023-08-31T00:55:05;2.35;;;1.30;;
13051;SDS011;6592;47.484;9.726;2023-08-31T00:57:34;4.38;;;1.73;;
13051;SDS011;6592;47.484;9.726;2023-08-31T01:00:02;4.30;;;1.52;;
13051;SDS011;6592;47.484;9.726;2023-08-31T01:02:34;2.33;;;1.60;;
13051;SDS011;6592;47.484;9.726;2023-08-31T01:05:20;3.22;;;1.60;;
13051;SDS011;6592;47.484;9.726;2023-08-31T01:07:59;2.35;;;1.50;;
13051;SDS011;6592;47.484;9.726;2023-08-31T01:10:37;2.45;;;1.33;;
13051;SDS011;6592;47.484;9.726;2023-08-31T01:13:11;3.60;;;1.65;;
13051;SDS011;6592;47.484;9.726;2023-08-31T01:15:43;3.38;;;1.75;;
13051;SDS011;6592;47.484;9.726;2023-08-31T01:18:14;3.33;;;1.70;;
13051;SDS011;6592;47.484;9.726;2023-08-31T01:20:45;2.80;;;1.50;;
13051;SDS011;6592;47.484;9.726;2023-08-31T01:23:21;2.55;;;1.67;;
13051;SDS011;6592;47.484;9.726;2023-08-31T01:25:58;3.15;;;1.65;;
13051;SDS011;6592;47.484;9.726;2023-08-31T01:28:26;4.13;;;1.60;;
13051;SDS011;6592;47.484;9.726;2023-08-31T01:30:54;2.85;;;1.58;;
13051;SDS011;6592;47.484;9.726;2023-08-31T01:33:23;2.30;;;1.50;;
13051;SDS011;6592;47.484;9.726;2023-08-31T01:35:51;2.58;;;1.55;;
13051;SDS011;6592;47.484;9.726;2023-08-31T01:38:24;3.05;;;1.42;;
13051;SDS011;6592;47.484;9.726;2023-08-31T01:40:56;2.90;;;1.70;;
13051;SDS011;6592;47.484;9.726;2023-08-31T01:43:30;2.88;;;1.67;;
13051;SDS011;6592;47.484;9.726;2023-08-31T01:46:00;3.67;;;1.48;;
13051;SDS011;6592;47.484;9.726;2023-08-31T01:48:29;3.13;;;1.48;;
13051;SDS011;6592;47.484;9.726;2023-08-31T01:50:57;2.55;;;1.70;;
13051;SDS011;6592;47.484;9.726;2023-08-31T01:53:26;3.88;;;1.52;;
13051;SDS011;6592;47.484;9.726;2023-08-31T01:55:54;3.78;;;1.60;;
13051;SDS011;6592;47.484;9.726;2023-08-31T01:58:24;2.70;;;1.40;;
13051;SDS011;6592;47.484;9.726;2023-08-31T02:00:52;2.92;;;1.65;;
13051;SDS011;6592;47.484;9.726;2023-08-31T02:03:20;4.78;;;1.63;;
13051;SDS011;6592;47.484;9.726;2023-08-31T02:05:49;3.30;;;1.58;;
13051;SDS011;6592;47.484;9.726;2023-08-31T02:08:17;3.42;;;1.90;;
13051;SDS011;6592;47.484;9.726;2023-08-31T02:10:45;4.63;;;1.83;;
13051;SDS011;6592;47.484;9.726;2023-08-31T02:13:14;3.67;;;1.33;;
13051;SDS011;6592;47.484;9.726;2023-08-31T02:15:44;3.40;;;1.50;;
13051;SDS011;6592;47.484;9.726;2023-08-31T02:18:13;3.60;;;1.50;;
13051;SDS011;6592;47.484;9.726;2023-08-31T02:20:41;5.63;;;1.80;;
13051;SDS011;6592;47.484;9.726;2023-08-31T02:23:09;2.85;;;1.70;;
13051;SDS011;6592;47.484;9.726;2023-08-31T02:25:39;4.00;;;2.10;;
13051;SDS011;6592;47.484;9.726;2023-08-31T02:28:07;2.67;;;1.67;;
13051;SDS011;6592;47.484;9.726;2023-08-31T02:30:35;2.97;;;1.50;;
13051;SDS011;6592;47.484;9.726;2023-08-31T02:33:05;3.65;;;1.60;;
13051;SDS011;6592;47.484;9.726;2023-08-31T02:35:33;2.63;;;1.42;;
13051;SDS011;6592;47.484;9.726;2023-08-31T02:38:02;2.55;;;1.50;;
13051;SDS011;6592;47.484;9.726;2023-08-31T02:40:30;3.30;;;1.75;;
13051;SDS011;6592;47.484;9.726;2023-08-31T02:42:58;4.13;;;1.75;;
13051;SDS011;6592;47.484;9.726;2023-08-31T02:45:27;3.63;;;1.50;;
13051;SDS011;6592;47.484;9.726;2023-08-31T02:47:55;3.38;;;1.50;;
13051;SDS011;6592;47.484;9.726;2023-08-31T02:50:25;5.30;;;1.60;;
13051;SDS011;6592;47.484;9.726;2023-08-31T02:52:53;3.60;;;1.85;;
13051;SDS011;6592;47.484;9.726;2023-08-31T02:55:21;2.80;;;1.63;;
13051;SDS011;6592;47.484;9.726;2023-08-31T02:57:49;3.20;;;1.55;;
13051;SDS011;6592;47.484;9.726;2023-08-31T03:00:18;3.45;;;1.63;;
13051;SDS011;6592;47.484;9.726;2023-08-31T03:02:48;3.40;;;1.80;;
13051;SDS011;6592;47.484;9.726;2023-08-31T03:05:18;3.73;;;1.73;;
13051;SDS011;6592;47.484;9.726;2023-08-31T03:07:49;2.65;;;1.63;;
13051;SDS011;6592;47.484;9.726;2023-08-31T03:10:17;3.42;;;1.50;;
13051;SDS011;6592;47.484;9.726;2023-08-31T03:12:45;2.80;;;1.63;;
13051;SDS011;6592;47.484;9.726;2023-08-31T03:15:14;3.60;;;1.60;;
13051;SDS011;6592;47.484;9.726;2023-08-31T03:17:42;3.97;;;1.73;;
13051;SDS011;6592;47.484;9.726;2023-08-31T03:20:10;3.50;;;1.55;;
13051;SDS011;6592;47.484;9.726;2023-08-31T03:22:39;2.75;;;1.70;;
13051;SDS011;6592;47.484;9.726;2023-08-31T03:25:08;2.78;;;1.60;;
13051;SDS011;6592;47.484;9.726;2023-08-31T03:27:37;3.75;;;1.70;;
13051;SDS011;6592;47.484;9.726;2023-08-31T03:30:05;5.00;;;1.90;;
13051;SDS011;6592;47.484;9.726;2023-08-31T03:32:35;4.82;;;1.55;;
13051;SDS011;6592;47.484;9.726;2023-08-31T03:35:03;3.30;;;1.73;;
13051;SDS011;6592;47.484;9.726;2023-08-31T03:37:33;3.20;;;1.55;;
13051;SDS011;6592;47.484;9.726;2023-08-31T03:40:02;3.80;;;2.08;;
13051;SDS011;6592;47.484;9.726;2023-08-31T03:42:34;3.38;;;1.70;;
13051;SDS011;6592;47.484;9.726;2023-08-31T03:45:02;5.10;;;1.70;;
13051;SDS011;6592;47.484;9.726;2023-08-31T03:47:31;6.05;;;1.75;;
13051;SDS011;6592;47.484;9.726;2023-08-31T03:50:00;3.90;;;1.52;;
13051;SDS011;6592;47.484;9.726;2023-08-31T03:52:28;5.60;;;1.90;;
13051;SDS011;6592;47.484;9.726;2023-08-31T03:54:56;3.40;;;1.70;;
13051;SDS011;6592;47.484;9.726;2023-08-31T03:57:25;2.63;;;1.50;;
13051;SDS011;6592;47.484;9.726;2023-08-31T03:59:55;3.30;;;1.77;;
13051;SDS011;6592;47.484;9.726;2023-08-31T04:02:23;3.88;;;1.60;;
13051;SDS011;6592;47.484;9.726;2023-08-31T04:04:51;6.68;;;1.63;;
13051;SDS011;6592;47.484;9.726;2023-08-31T04:07:20;4.90;;;1.88;;
13051;SDS011;6592;47.484;9.726;2023-08-31T04:09:48;3.90;;;1.90;;
13051;SDS011;6592;47.484;9.726;2023-08-31T04:12:16;3.65;;;1.90;;
13051;SDS011;6592;47.484;9.726;2023-08-31T04:14:44;4.13;;;1.58;;
13051;SDS011;6592;47.484;9.726;2023-08-31T04:17:14;3.45;;;1.52;;
13051;SDS011;6592;47.484;9.726;2023-08-31T04:19:42;4.35;;;1.73;;
13051;SDS011;6592;47.484;9.726;2023-08-31T04:22:11;3.42;;;1.73;;
13051;SDS011;6592;47.484;9.726;2023-08-31T04:24:39;4.15;;;1.58;;
13051;SDS011;6592;47.484;9.726;2023-08-31T04:27:07;5.15;;;1.80;;
13051;SDS011;6592;47.484;9.726;2023-08-31T04:29:35;3.17;;;1.67;;
13051;SDS011;6592;47.484;9.726;2023-08-31T04:32:04;3.83;;;1.60;;
13051;SDS011;6592;47.484;9.726;2023-08-31T04:34:34;3.60;;;1.70;;
13051;SDS011;6592;47.484;9.726;2023-08-31T04:37:03;2.75;;;1.65;;
13051;SDS011;6592;47.484;9.726;2023-08-31T04:39:31;3.03;;;1.63;;
13051;SDS011;6592;47.484;9.726;2023-08-31T04:41:59;2.75;;;1.70;;
13051;SDS011;6592;47.484;9.726;2023-08-31T04:44:28;2.72;;;1.60;;
13051;SDS011;6592;47.484;9.726;2023-08-31T04:46:56;4.85;;;1.58;;
13051;SDS011;6592;47.484;9.726;2023-08-31T04:49:25;2.50;;;1.60;;
13051;SDS011;6592;47.484;9.726;2023-08-31T04:51:55;3.53;;;1.55;;
13051;SDS011;6592;47.484;9.726;2023-08-31T04:54:24;4.43;;;1.98;;
13051;SDS011;6592;47.484;9.726;2023-08-31T04:56:52;3.92;;;1.90;;
13051;SDS011;6592;47.484;9.726;2023-08-31T04:59:21;5.65;;;1.70;;
13051;SDS011;6592;47.484;9.726;2023-08-31T05:01:49;3.20;;;1.70;;
13051;SDS011;6592;47.484;9.726;2023-08-31T05:04:17;5.72;;;1.70;;
13051;SDS011;6592;47.484;9.726;2023-08-31T05:06:45;3.63;;;1.80;;
13051;SDS011;6592;47.484;9.726;2023-08-31T05:09:15;3.50;;;1.77;;
13051;SDS011;6592;47.484;9.726;2023-08-31T05:11:45;4.00;;;1.70;;
13051;SDS011;6592;47.484;9.726;2023-08-31T05:14:13;2.67;;;1.60;;
13051;SDS011;6592;47.484;9.726;2023-08-31T05:16:42;2.50;;;1.45;;
13051;SDS011;6592;47.484;9.726;2023-08-31T05:19:10;4.32;;;1.92;;
13051;SDS011;6592;47.484;9.726;2023-08-31T05:21:39;3.15;;;1.55;;
13051;SDS011;6592;47.484;9.726;2023-08-31T05:24:07;3.00;;;1.70;;
13051;SDS011;6592;47.484;9.726;2023-08-31T05:26:37;3.63;;;1.73;;
13051;SDS011;6592;47.484;9.726;2023-08-31T05:29:06;6.72;;;2.00;;
13051;SDS011;6592;47.484;9.726;2023-08-31T05:31:34;3.08;;;1.60;;
13051;SDS011;6592;47.484;9.726;2023-08-31T05:34:03;4.63;;;1.80;;
13051;SDS011;6592;47.484;9.726;2023-08-31T05:36:31;2.83;;;1.60;;
13051;SDS011;6592;47.484;9.726;2023-08-31T05:39:00;4.18;;;2.08;;
13051;SDS011;6592;47.484;9.726;2023-08-31T05:41:28;4.40;;;1.88;;
13051;SDS011;6592;47.484;9.726;2023-08-31T05:43:58;4.07;;;1.80;;
13051;SDS011;6592;47.484;9.726;2023-08-31T05:46:26;2.72;;;1.60;;
13051;SDS011;6592;47.484;9.726;2023-08-31T05:48:55;3.85;;;1.73;;
13051;SDS011;6592;47.484;9.726;2023-08-31T05:51:23;2.92;;;1.85;;
13051;SDS011;6592;47.484;9.726;2023-08-31T05:53:52;4.43;;;1.77;;
13051;SDS011;6592;47.484;9.726;2023-08-31T05:56:20;2.72;;;1.55;;
13051;SDS011;6592;47.484;9.726;2023-08-31T05:58:48;4.35;;;1.90;;
13051;SDS011;6592;47.484;9.726;2023-08-31T06:01:22;3.00;;;1.90;;
13051;SDS011;6592;47.484;9.726;2023-08-31T06:03:51;4.05;;;1.80;;
13051;SDS011;6592;47.484;9.726;2023-08-31T06:06:19;4.70;;;1.75;;
13051;SDS011;6592;47.484;9.726;2023-08-31T06:08:48;5.32;;;1.95;;
13051;SDS011;6592;47.484;9.726;2023-08-31T06:11:16;4.15;;;1.80;;
13051;SDS011;6592;47.484;9.726;2023-08-31T06:13:44;4.22;;;1.73;;
13051;SDS011;6592;47.484;9.726;2023-08-31T06:16:12;3.13;;;1.83;;
13051;SDS011;6592;47.484;9.726;2023-08-31T06:18:42;4.55;;;1.70;;
13051;SDS011;6592;47.484;9.726;2023-08-31T06:21:10;3.05;;;1.80;;
13051;SDS011;6592;47.484;9.726;2023-08-31T06:23:38;5.70;;;2.00;;
13051;SDS011;6592;47.484;9.726;2023-08-31T06:26:07;4.22;;;1.85;;
13051;SDS011;6592;47.484;9.726;2023-08-31T06:28:35;4.65;;;1.85;;
13051;SDS011;6592;47.484;9.726;2023-08-31T06:31:04;3.28;;;1.90;;
13051;SDS011;6592;47.484;9.726;2023-08-31T06:33:34;7.93;;;2.10;;
13051;SDS011;6592;47.484;9.726;2023-08-31T06:36:04;3.88;;;2.00;;
13051;SDS011;6592;47.484;9.726;2023-08-31T06:38:32;5.75;;;1.98;;
13051;SDS011;6592;47.484;9.726;2023-08-31T06:41:01;3.33;;;1.98;;
13051;SDS011;6592;47.484;9.726;2023-08-31T06:43:30;4.10;;;1.80;;
13051;SDS011;6592;47.484;9.726;2023-08-31T06:45:59;4.07;;;1.73;;
13051;SDS011;6592;47.484;9.726;2023-08-31T06:48:47;4.60;;;2.28;;
13051;SDS011;6592;47.484;9.726;2023-08-31T06:51:17;4.78;;;2.00;;
13051;SDS011;6592;47.484;9.726;2023-08-31T06:53:49;5.18;;;2.08;;
13051;SDS011;6592;47.484;9.726;2023-08-31T06:56:17;4.30;;;2.15;;
13051;SDS011;6592;47.484;9.726;2023-08-31T06:58:46;4.07;;;2.20;;
13051;SDS011;6592;47.484;9.726;2023-08-31T07:01:14;4.15;;;2.38;;
13051;SDS011;6592;47.484;9.726;2023-08-31T07:03:42;4.35;;;2.33;;
13051;SDS011;6592;47.484;9.726;2023-08-31T07:06:11;5.32;;;2.72;;
13051;SDS011;6592;47.484;9.726;2023-08-31T07:08:40;5.35;;;2.20;;
13051;SDS011;6592;47.484;9.726;2023-08-31T07:11:11;5.78;;;2.33;;
13051;SDS011;6592;47.484;9.726;2023-08-31T07:13:40;4.90;;;1.90;;
13051;SDS011;6592;47.484;9.726;2023-08-31T07:16:08;3.65;;;1.70;;
13051;SDS011;6592;47.484;9.726;2023-08-31T07:18:36;2.97;;;1.70;;
13051;SDS011;6592;47.484;9.726;2023-08-31T07:21:05;3.10;;;1.70;;
13051;SDS011;6592;47.484;9.726;2023-08-31T07:23:37;3.35;;;1.60;;
13051;SDS011;6592;47.484;9.726;2023-08-31T07:26:06;3.17;;;1.42;;
13051;SDS011;6592;47.484;9.726;2023-08-31T07:28:35;3.55;;;1.67;;
13051;SDS011;6592;47.484;9.726;2023-08-31T07:31:03;2.78;;;1.52;;
13051;SDS011;6592;47.484;9.726;2023-08-31T07:33:33;5.03;;;1.45;;
13051;SDS011;6592;47.484;9.726;2023-08-31T07:36:03;2.60;;;1.20;;
13051;SDS011;6592;47.484;9.726;2023-08-31T07:38:33;2.95;;;1.27;;
13051;SDS011;6592;47.484;9.726;2023-08-31T07:41:01;3.38;;;1.45;;
13051;SDS011;6592;47.484;9.726;2023-08-31T07:43:32;2.67;;;1.10;;
13051;SDS011;6592;47.484;9.726;2023-08-31T07:46:00;3.55;;;1.20;;
13051;SDS011;6592;47.484;9.726;2023-08-31T07:48:29;1.95;;;1.17;;
13051;SDS011;6592;47.484;9.726;2023-08-31T07:50:57;3.40;;;1.50;;
13051;SDS011;6592;47.484;9.726;2023-08-31T07:53:25;3.05;;;1.35;;
13051;SDS011;6592;47.484;9.726;2023-08-31T07:55:56;3.35;;;1.20;;
13051;SDS011;6592;47.484;9.726;2023-08-31T07:58:24;2.63;;;1.23;;
13051;SDS011;6592;47.484;9.726;2023-08-31T08:00:54;3.42;;;1.50;;
13051;SDS011;6592;47.484;9.726;2023-08-31T08:03:23;2.65;;;1.10;;
13051;SDS011;6592;47.484;9.726;2023-08-31T08:05:52;2.22;;;1.10;;
13051;SDS011;6592;47.484;9.726;2023-08-31T08:08:20;3.45;;;1.33;;
13051;SDS011;6592;47.484;9.726;2023-08-31T08:10:51;3.53;;;1.60;;
13051;SDS011;6592;47.484;9.726;2023-08-31T08:13:20;2.78;;;1.40;;
13051;SDS011;6592;47.484;9.726;2023-08-31T08:15:48;4.47;;;1.85;;
13051;SDS011;6592;47.484;9.726;2023-08-31T08:18:18;3.72;;;2.10;;
13051;SDS011;6592;47.484;9.726;2023-08-31T08:20:47;4.47;;;2.10;;
13051;SDS011;6592;47.484;9.726;2023-08-31T08:23:15;4.40;;;1.95;;
13051;SDS011;6592;47.484;9.726;2023-08-31T08:25:44;5.93;;;1.73;;
13051;SDS011;6592;47.484;9.726;2023-08-31T08:28:12;3.70;;;1.88;;
13051;SDS011;6592;47.484;9.726;2023-08-31T08:30:41;5.18;;;1.95;;
13051;SDS011;6592;47.484;9.726;2023-08-31T08:33:09;3.15;;;1.67;;
13051;SDS011;6592;47.484;9.726;2023-08-31T08:35:39;6.88;;;1.90;;
13051;SDS011;6592;47.484;9.726;2023-08-31T08:38:07;2.42;;;1.20;;
13051;SDS011;6592;47.484;9.726;2023-08-31T08:40:36;3.10;;;1.70;;
13051;SDS011;6592;47.484;9.726;2023-08-31T08:43:05;3.67;;;2.00;;
13051;SDS011;6592;47.484;9.726;2023-08-31T08:45:36;4.07;;;1.70;;
13051;SDS011;6592;47.484;9.726;2023-08-31T08:48:08;4.15;;;1.67;;
13051;SDS011;6592;47.484;9.726;2023-08-31T08:50:36;3.20;;;1.60;;
13051;SDS011;6592;47.484;9.726;2023-08-31T08:53:07;5.05;;;1.80;;
13051;SDS011;6592;47.484;9.726;2023-08-31T08:55:35;5.35;;;1.70;;
13051;SDS011;6592;47.484;9.726;2023-08-31T08:58:04;3.70;;;1.60;;
13051;SDS011;6592;47.484;9.726;2023-08-31T09:00:32;2.95;;;1.55;;
13051;SDS011;6592;47.484;9.726;2023-08-31T09:03:03;3.05;;;1.50;;
13051;SDS011;6592;47.484;9.726;2023-08-31T09:05:32;2.88;;;1.48;;
13051;SDS011;6592;47.484;9.726;2023-08-31T09:08:00;2.33;;;1.20;;
13051;SDS011;6592;47.484;9.726;2023-08-31T09:10:34;3.58;;;1.52;;
13051;SDS011;6592;47.484;9.726;2023-08-31T09:13:07;3.85;;;1.58;;
13051;SDS011;6592;47.484;9.726;2023-08-31T09:15:40;3.35;;;1.50;;
13051;SDS011;6592;47.484;9.726;2023-08-31T09:18:08;3.20;;;1.13;;
13051;SDS011;6592;47.484;9.726;2023-08-31T09:20:43;3.40;;;1.48;;
13051;SDS011;6592;47.484;9.726;2023-08-31T09:23:12;1.98;;;1.10;;
13051;SDS011;6592;47.484;9.726;2023-08-31T09:25:42;4.03;;;1.48;;
13051;SDS011;6592;47.484;9.726;2023-08-31T09:28:12;2.97;;;1.20;;
13051;SDS011;6592;47.484;9.726;2023-08-31T09:30:41;3.60;;;1.20;;
13051;SDS011;6592;47.484;9.726;2023-08-31T09:33:13;4.10;;;1.40;;
13051;SDS011;6592;47.484;9.726;2023-08-31T09:35:50;2.40;;;1.27;;
13051;SDS011;6592;47.484;9.726;2023-08-31T09:38:19;4.15;;;1.40;;
13051;SDS011;6592;47.484;9.726;2023-08-31T09:40:49;2.22;;;1.27;;
13051;SDS011;6592;47.484;9.726;2023-08-31T09:43:21;2.83;;;1.33;;
13051;SDS011;6592;47.484;9.726;2023-08-31T09:45:50;2.20;;;1.30;;
13051;SDS011;6592;47.484;9.726;2023-08-31T09:48:20;2.50;;;1.27;;
13051;SDS011;6592;47.484;9.726;2023-08-31T09:50:51;3.50;;;1.48;;
13051;SDS011;6592;47.484;9.726;2023-08-31T09:53:20;3.15;;;1.40;;
13051;SDS011;6592;47.484;9.726;2023-08-31T09:55:56;3.65;;;1.50;;
13051;SDS011;6592;47.484;9.726;2023-08-31T09:58:24;2.83;;;1.50;;
13051;SDS011;6592;47.484;9.726;2023-08-31T10:00:53;3.33;;;1.30;;
13051;SDS011;6592;47.484;9.726;2023-08-31T10:03:22;2.35;;;1.40;;
13051;SDS011;6592;47.484;9.726;2023-08-31T10:05:50;3.33;;;1.25;;
13051;SDS011;6592;47.484;9.726;2023-08-31T10:08:19;2.45;;;1.30;;
13051;SDS011;6592;47.484;9.726;2023-08-31T10:10:47;3.55;;;1.50;;
13051;SDS011;6592;47.484;9.726;2023-08-31T10:13:17;2.92;;;1.50;;
13051;SDS011;6592;47.484;9.726;2023-08-31T10:15:47;4.53;;;1.48;;
13051;SDS011;6592;47.484;9.726;2023-08-31T10:18:17;3.30;;;1.50;;
13051;SDS011;6592;47.484;9.726;2023-08-31T10:20:46;3.72;;;1.38;;
13051;SDS011;6592;47.484;9.726;2023-08-31T10:23:14;2.80;;;1.60;;
13051;SDS011;6592;47.484;9.726;2023-08-31T10:28:39;2.90;;;1.42;;
13051;SDS011;6592;47.484;9.726;2023-08-31T10:31:09;2.28;;;1.20;;
13051;SDS011;6592;47.484;9.726;2023-08-31T10:33:41;3.22;;;1.33;;
13051;SDS011;6592;47.484;9.726;2023-08-31T10:36:13;2.45;;;1.33;;
13051;SDS011;6592;47.484;9.726;2023-08-31T10:38:42;2.80;;;1.30;;
13051;SDS011;6592;47.484;9.726;2023-08-31T10:41:19;3.88;;;1.35;;
13051;SDS011;6592;47.484;9.726;2023-08-31T10:43:51;3.90;;;1.30;;
13051;SDS011;6592;47.484;9.726;2023-08-31T10:48:59;2.42;;;1.23;;
13051;SDS011;6592;47.484;9.726;2023-08-31T10:51:30;2.97;;;1.35;;
13051;SDS011;6592;47.484;9.726;2023-08-31T10:54:06;2.90;;;1.20;;
13051;SDS011;6592;47.484;9.726;2023-08-31T10:57:00;2.92;;;1.33;;
13051;SDS011;6592;47.484;9.726;2023-08-31T10:59:44;3.40;;;1.27;;
13051;SDS011;6592;47.484;9.726;2023-08-31T11:05:08;3.10;;;1.20;;
13051;SDS011;6592;47.484;9.726;2023-08-31T11:07:37;2.45;;;1.00;;
13051;SDS011;6592;47.484;9.726;2023-08-31T11:10:08;2.70;;;1.23;;
13051;SDS011;6592;47.484;9.726;2023-08-31T11:12:41;3.88;;;1.40;;
13051;SDS011;6592;47.484;9.726;2023-08-31T11:15:12;2.35;;;1.10;;
13051;SDS011;6592;47.484;9.726;2023-08-31T11:17:41;3.55;;;1.20;;
13051;SDS011;6592;47.484;9.726;2023-08-31T11:20:13;3.25;;;1.27;;
13051;SDS011;6592;47.484;9.726;2023-08-31T11:22:44;2.47;;;1.13;;
13051;SDS011;6592;47.484;9.726;2023-08-31T11:25:13;3.05;;;1.55;;
13051;SDS011;6592;47.484;9.726;2023-08-31T11:27:42;2.90;;;1.10;;
13051;SDS011;6592;47.484;9.726;2023-08-31T11:30:21;2.47;;;1.10;;
13051;SDS011;6592;47.484;9.726;2023-08-31T11:32:50;2.50;;;1.00;;
13051;SDS011;6592;47.484;9.726;2023-08-31T11:35:21;2.67;;;1.10;;
13051;SDS011;6592;47.484;9.726;2023-08-31T11:37:52;2.40;;;1.10;;
13051;SDS011;6592;47.484;9.726;2023-08-31T11:40:22;2.65;;;1.10;;
13051;SDS011;6592;47.484;9.726;2023-08-31T11:42:51;2.80;;;1.00;;
13051;SDS011;6592;47.484;9.726;2023-08-31T11:45:19;3.50;;;1.00;;
13051;SDS011;6592;47.484;9.726;2023-08-31T11:47:52;4.65;;;1.00;;
13051;SDS011;6592;47.484;9.726;2023-08-31T11:50:22;3.30;;;1.00;;
13051;SDS011;6592;47.484;9.726;2023-08-31T11:52:51;3.55;;;1.02;;
13051;SDS011;6592;47.484;9.726;2023-08-31T11:55:20;2.53;;;0.90;;
13051;SDS011;6592;47.484;9.726;2023-08-31T11:57:49;1.88;;;0.90;;
13051;SDS011;6592;47.484;9.726;2023-08-31T12:00:18;3.38;;;1.15;;
13051;SDS011;6592;47.484;9.726;2023-08-31T12:02:55;2.88;;;1.27;;
13051;SDS011;6592;47.484;9.726;2023-08-31T12:05:25;2.00;;;0.90;;
13051;SDS011;6592;47.484;9.726;2023-08-31T12:07:53;2.63;;;1.00;;
13051;SDS011;6592;47.484;9.726;2023-08-31T12:10:23;4.50;;;1.20;;
13051;SDS011;6592;47.484;9.726;2023-08-31T12:12:53;2.05;;;1.00;;
13051;SDS011;6592;47.484;9.726;2023-08-31T12:15:22;3.67;;;1.20;;
13051;SDS011;6592;47.484;9.726;2023-08-31T12:17:59;4.45;;;1.10;;
13051;SDS011;6592;47.484;9.726;2023-08-31T12:20:34;3.90;;;1.10;;
13051;SDS011;6592;47.484;9.726;2023-08-31T12:23:11;2.35;;;1.10;;
13051;SDS011;6592;47.484;9.726;2023-08-31T12:25:45;2.90;;;1.05;;
13051;SDS011;6592;47.484;9.726;2023-08-31T12:28:14;3.67;;;1.08;;
13051;SDS011;6592;47.484;9.726;2023-08-31T12:30:46;3.13;;;1.20;;
13051;SDS011;6592;47.484;9.726;2023-08-31T12:33:17;3.22;;;1.10;;
13051;SDS011;6592;47.484;9.726;2023-08-31T12:38:15;2.85;;;0.93;;
13051;SDS011;6592;47.484;9.726;2023-08-31T12:40:44;2.65;;;0.98;;
13051;SDS011;6592;47.484;9.726;2023-08-31T12:43:12;3.28;;;1.20;;
13051;SDS011;6592;47.484;9.726;2023-08-31T12:45:43;3.97;;;1.35;;
13051;SDS011;6592;47.484;9.726;2023-08-31T12:48:11;2.72;;;0.95;;
13051;SDS011;6592;47.484;9.726;2023-08-31T12:50:41;4.18;;;1.27;;
13051;SDS011;6592;47.484;9.726;2023-08-31T12:53:09;2.67;;;1.10;;
13051;SDS011;6592;47.484;9.726;2023-08-31T12:55:38;3.80;;;1.33;;
13051;SDS011;6592;47.484;9.726;2023-08-31T12:58:06;2.67;;;1.00;;
13051;SDS011;6592;47.484;9.726;2023-08-31T13:00:35;3.78;;;1.00;;
13051;SDS011;6592;47.484;9.726;2023-08-31T13:03:03;3.13;;;0.90;;
13051;SDS011;6592;47.484;9.726;2023-08-31T13:05:33;3.83;;;1.27;;
13051;SDS011;6592;47.484;9.726;2023-08-31T13:08:03;1.88;;;0.85;;
13051;SDS011;6592;47.484;9.726;2023-08-31T13:10:32;3.08;;;1.10;;
13051;SDS011;6592;47.484;9.726;2023-08-31T13:13:01;3.17;;;1.10;;
13051;SDS011;6592;47.484;9.726;2023-08-31T13:15:31;2.60;;;1.00;;
13051;SDS011;6592;47.484;9.726;2023-08-31T13:17:59;2.83;;;1.13;;
13051;SDS011;6592;47.484;9.726;2023-08-31T13:20:28;3.67;;;1.10;;
13051;SDS011;6592;47.484;9.726;2023-08-31T13:22:57;1.88;;;0.90;;
13051;SDS011;6592;47.484;9.726;2023-08-31T13:25:27;4.22;;;1.13;;
13051;SDS011;6592;47.484;9.726;2023-08-31T13:27:55;3.78;;;1.30;;
13051;SDS011;6592;47.484;9.726;2023-08-31T13:30:24;3.78;;;1.05;;
13051;SDS011;6592;47.484;9.726;2023-08-31T13:32:52;4.05;;;1.30;;
13051;SDS011;6592;47.484;9.726;2023-08-31T13:35:20;4.75;;;1.02;;
13051;SDS011;6592;47.484;9.726;2023-08-31T13:37:49;3.10;;;1.20;;
13051;SDS011;6592;47.484;9.726;2023-08-31T13:40:17;3.13;;;1.05;;
13051;SDS011;6592;47.484;9.726;2023-08-31T13:42:52;4.57;;;1.10;;
13051;SDS011;6592;47.484;9.726;2023-08-31T13:45:23;2.45;;;0.80;;
13051;SDS011;6592;47.484;9.726;2023-08-31T13:47:51;3.97;;;1.48;;
13051;SDS011;6592;47.484;9.726;2023-08-31T13:50:20;2.85;;;1.20;;
13051;SDS011;6592;47.484;9.726;2023-08-31T13:52:48;2.67;;;1.05;;
13051;SDS011;6592;47.484;9.726;2023-08-31T13:55:16;2.92;;;0.98;;
13051;SDS011;6592;47.484;9.726;2023-08-31T13:57:45;2.85;;;0.90;;
13051;SDS011;6592;47.484;9.726;2023-08-31T14:00:15;4.10;;;1.10;;
13051;SDS011;6592;47.484;9.726;2023-08-31T14:02:44;3.45;;;1.13;;
13051;SDS011;6592;47.484;9.726;2023-08-31T14:05:12;3.35;;;1.38;;
13051;SDS011;6592;47.484;9.726;2023-08-31T14:07:41;2.33;;;1.10;;
13051;SDS011;6592;47.484;9.726;2023-08-31T14:10:09;4.50;;;1.17;;
13051;SDS011;6592;47.484;9.726;2023-08-31T14:12:38;3.38;;;1.20;;
13051;SDS011;6592;47.484;9.726;2023-08-31T14:15:06;3.40;;;1.20;;
13051;SDS011;6592;47.484;9.726;2023-08-31T14:17:36;2.15;;;1.08;;
13051;SDS011;6592;47.484;9.726;2023-08-31T14:20:05;2.63;;;1.05;;
13051;SDS011;6592;47.484;9.726;2023-08-31T14:22:37;2.97;;;1.10;;
13051;SDS011;6592;47.484;9.726;2023-08-31T14:27:37;3.88;;;1.40;;
13051;SDS011;6592;47.484;9.726;2023-08-31T14:30:06;2.50;;;1.27;;
13051;SDS011;6592;47.484;9.726;2023-08-31T14:32:35;3.35;;;1.30;;
13051;SDS011;6592;47.484;9.726;2023-08-31T14:35:05;3.33;;;1.08;;
13051;SDS011;6592;47.484;9.726;2023-08-31T14:37:33;3.60;;;1.25;;
13051;SDS011;6592;47.484;9.726;2023-08-31T14:40:02;2.58;;;1.00;;
13051;SDS011;6592;47.484;9.726;2023-08-31T14:42:33;2.83;;;1.17;;
13051;SDS011;6592;47.484;9.726;2023-08-31T14:45:01;3.53;;;1.20;;
13051;SDS011;6592;47.484;9.726;2023-08-31T14:47:30;2.88;;;1.40;;
13051;SDS011;6592;47.484;9.726;2023-08-31T14:49:59;3.38;;;1.15;;
13051;SDS011;6592;47.484;9.726;2023-08-31T14:52:28;3.35;;;1.20;;
13051;SDS011;6592;47.484;9.726;2023-08-31T14:54:56;3.90;;;1.20;;
13051;SDS011;6592;47.484;9.726;2023-08-31T14:57:24;2.67;;;1.17;;
13051;SDS011;6592;47.484;9.726;2023-08-31T14:59:52;3.72;;;1.25;;
13051;SDS011;6592;47.484;9.726;2023-08-31T15:02:28;4.20;;;1.17;;
13051;SDS011;6592;47.484;9.726;2023-08-31T15:04:57;2.90;;;1.33;;
13051;SDS011;6592;47.484;9.726;2023-08-31T15:07:26;3.83;;;1.40;;
13051;SDS011;6592;47.484;9.726;2023-08-31T15:09:55;2.90;;;1.20;;
13051;SDS011;6592;47.484;9.726;2023-08-31T15:12:23;4.53;;;1.30;;
13051;SDS011;6592;47.484;9.726;2023-08-31T15:14:51;2.42;;;1.17;;
13051;SDS011;6592;47.484;9.726;2023-08-31T15:17:20;4.63;;;1.40;;
13051;SDS011;6592;47.484;9.726;2023-08-31T15:19:50;3.22;;;1.38;;
13051;SDS011;6592;47.484;9.726;2023-08-31T15:22:18;3.75;;;1.33;;
13051;SDS011;6592;47.484;9.726;2023-08-31T15:24:50;4.07;;;1.10;;
13051;SDS011;6592;47.484;9.726;2023-08-31T15:27:19;3.90;;;1.50;;